createdAt,value
2023-04-04T00:01:13.859Z,-3.00
2023-04-04T00:03:43.184Z,-3.01
2023-04-04T00:06:13.156Z,-3.04
2023-04-04T00:08:42.345Z,-3.06
2023-04-04T00:11:10.963Z,-3.05
2023-04-04T00:13:40.944Z,-3.01
2023-04-04T00:16:11.830Z,-3.00
2023-04-04T00:18:40.748Z,-2.99
2023-04-04T00:21:09.682Z,-3.00
2023-04-04T00:23:39.656Z,-2.97
2023-04-04T00:26:09.230Z,-2.95
2023-04-04T00:28:38.273Z,-2.96
2023-04-04T00:31:08.638Z,-2.97
2023-04-04T00:33:37.446Z,-3.01
2023-04-04T00:36:07.767Z,-3.06
2023-04-04T00:38:36.455Z,-3.11
2023-04-04T00:41:07.068Z,-3.15
2023-04-04T00:43:36.211Z,-3.18
2023-04-04T00:46:08.973Z,-3.20
2023-04-04T00:48:38.341Z,-3.21
2023-04-04T00:51:08.049Z,-3.21
2023-04-04T00:53:38.487Z,-3.20
2023-04-04T00:56:11.550Z,-3.14
2023-04-04T00:58:41.922Z,-3.11
2023-04-04T01:01:11.911Z,-3.10
2023-04-04T01:03:42.391Z,-3.10
2023-04-04T01:06:11.552Z,-3.13
2023-04-04T01:08:42.577Z,-3.17
2023-04-04T01:11:11.805Z,-3.22
2023-04-04T01:13:43.428Z,-3.28
2023-04-04T01:16:16.065Z,-3.32
2023-04-04T01:18:46.592Z,-3.37
2023-04-04T01:21:17.877Z,-3.42
2023-04-04T01:24:00.227Z,-3.46
2023-04-04T01:26:36.236Z,-3.51
2023-04-04T01:29:09.730Z,-3.54
2023-04-04T01:31:46.259Z,-3.59
2023-04-04T01:34:36.680Z,-3.62
2023-04-04T01:37:17.177Z,-3.66
2023-04-04T01:39:49.048Z,-3.70
2023-04-04T01:42:20.473Z,-3.74
2023-04-04T01:44:55.343Z,-3.78
2023-04-04T01:47:25.216Z,-3.81
2023-04-04T01:49:54.435Z,-3.81
2023-04-04T01:52:24.081Z,-3.81
2023-04-04T01:54:52.703Z,-3.83
2023-04-04T01:57:21.982Z,-3.85
2023-04-04T01:59:53.109Z,-3.87
2023-04-04T02:02:23.059Z,-3.90
2023-04-04T02:04:52.728Z,-3.91
2023-04-04T02:07:21.354Z,-3.94
2023-04-04T02:09:50.623Z,-3.96
2023-04-04T02:12:20.962Z,-3.98
2023-04-04T02:14:50.128Z,-4.01
2023-04-04T02:17:18.740Z,-4.03
2023-04-04T02:19:47.512Z,-4.06
2023-04-04T02:22:17.726Z,-4.08
2023-04-04T02:24:49.106Z,-4.10
2023-04-04T02:27:17.946Z,-4.13
2023-04-04T02:29:49.112Z,-4.14
2023-04-04T02:32:18.833Z,-4.16
2023-04-04T02:34:51.167Z,-4.16
2023-04-04T02:37:20.176Z,-4.18
2023-04-04T02:39:51.714Z,-4.18
2023-04-04T02:42:20.285Z,-4.18
2023-04-04T02:44:49.314Z,-4.17
2023-04-04T02:47:18.859Z,-4.17
2023-04-04T02:49:47.724Z,-4.16
2023-04-04T02:52:17.515Z,-4.17
2023-04-04T02:54:47.613Z,-4.18
2023-04-04T02:57:24.620Z,-4.18
2023-04-04T02:59:53.390Z,-4.19
2023-04-04T03:02:25.980Z,-4.21
2023-04-04T03:04:56.012Z,-4.20
2023-04-04T03:07:24.864Z,-4.19
2023-04-04T03:09:56.166Z,-4.19
2023-04-04T03:12:25.505Z,-4.18
2023-04-04T03:14:56.703Z,-4.16
2023-04-04T03:17:27.306Z,-4.15
2023-04-04T03:19:58.192Z,-4.13
2023-04-04T03:22:27.629Z,-4.12
2023-04-04T03:24:56.367Z,-4.11
2023-04-04T03:27:24.882Z,-4.11
2023-04-04T03:29:54.979Z,-4.10
2023-04-04T03:32:23.990Z,-4.10
2023-04-04T03:34:52.902Z,-4.10
2023-04-04T03:37:22.800Z,-4.09
2023-04-04T03:39:52.512Z,-4.08
2023-04-04T03:42:22.302Z,-4.07
2023-04-04T03:44:51.128Z,-4.06
2023-04-04T03:47:28.217Z,-4.03
2023-04-04T03:49:57.953Z,-3.99
2023-04-04T03:55:35.474Z,-3.99
2023-04-04T03:58:05.486Z,-3.98
2023-04-04T04:00:36.178Z,-3.96
2023-04-04T04:03:05.056Z,-3.95
2023-04-04T04:05:35.620Z,-3.93
2023-04-04T04:08:06.296Z,-3.92
2023-04-04T04:10:35.274Z,-3.92
2023-04-04T04:13:05.666Z,-3.92
2023-04-04T04:15:35.165Z,-3.92
2023-04-04T04:18:07.919Z,-3.93
2023-04-04T04:20:37.594Z,-3.92
2023-04-04T04:23:06.447Z,-3.93
2023-04-04T04:25:35.193Z,-3.95
2023-04-04T04:28:16.491Z,-3.93
2023-04-04T04:30:45.634Z,-3.94
2023-04-04T04:33:16.094Z,-3.93
2023-04-04T04:36:04.958Z,-3.91
2023-04-04T04:38:41.834Z,-3.87
2023-04-04T04:41:11.356Z,-3.83
2023-04-04T04:43:45.505Z,-3.76
2023-04-04T04:46:18.496Z,-3.67
2023-04-04T04:48:48.002Z,-3.60
2023-04-04T04:51:19.683Z,-3.54
2023-04-04T04:53:52.518Z,-3.45
2023-04-04T04:56:22.327Z,-3.37
2023-04-04T04:58:52.807Z,-3.29
2023-04-04T05:01:28.151Z,-3.17
2023-04-04T05:03:58.382Z,-3.05
2023-04-04T05:06:34.891Z,-2.91
2023-04-04T05:09:05.342Z,-2.77
2023-04-04T05:11:37.699Z,-2.66
2023-04-04T05:14:07.310Z,-2.54
2023-04-04T05:16:39.015Z,-2.38
2023-04-04T05:19:08.317Z,-2.25
2023-04-04T05:21:42.311Z,-2.11
2023-04-04T05:24:13.518Z,-1.99
2023-04-04T05:26:43.220Z,-1.86
2023-04-04T05:29:12.576Z,-1.72
2023-04-04T05:31:43.438Z,-1.55
2023-04-04T05:34:17.408Z,-1.37
2023-04-04T05:36:46.958Z,-1.16
2023-04-04T05:39:19.636Z,-0.91
2023-04-04T05:41:59.809Z,-0.57
2023-04-04T05:44:30.427Z,-0.30
2023-04-04T05:46:59.619Z,-0.01
2023-04-04T05:49:30.825Z,0.24
2023-04-04T05:52:00.881Z,0.46
2023-04-04T05:54:31.435Z,0.71
2023-04-04T05:57:02.010Z,0.93
2023-04-04T05:59:42.483Z,1.08
2023-04-04T06:02:13.789Z,1.20
2023-04-04T06:04:55.093Z,1.28
2023-04-04T06:07:47.860Z,1.40
2023-04-04T06:10:18.235Z,1.48
2023-04-04T06:12:47.915Z,1.56
2023-04-04T06:15:17.902Z,1.57
2023-04-04T06:17:49.072Z,1.60
2023-04-04T06:20:24.460Z,1.67
2023-04-04T06:22:56.381Z,1.74
2023-04-04T06:25:27.533Z,1.79
2023-04-04T06:28:00.182Z,1.78
2023-04-04T06:30:29.343Z,1.81
2023-04-04T06:32:59.980Z,1.88
2023-04-04T06:35:30.014Z,1.93
2023-04-04T06:38:01.251Z,1.95
2023-04-04T06:40:32.823Z,1.98
2023-04-04T06:43:03.192Z,2.01
2023-04-04T06:45:40.594Z,2.05
2023-04-04T06:48:10.819Z,2.11
2023-04-04T06:50:40.085Z,2.17
2023-04-04T06:53:15.426Z,2.20
2023-04-04T06:55:49.326Z,2.30
2023-04-04T06:58:20.553Z,2.36
2023-04-04T07:00:52.104Z,2.39
2023-04-04T07:03:24.077Z,2.42
2023-04-04T07:05:53.787Z,2.48
2023-04-04T07:08:24.397Z,2.56
2023-04-04T07:10:54.417Z,2.65
2023-04-04T07:13:23.963Z,2.77
2023-04-04T07:15:55.982Z,2.96
2023-04-04T07:18:26.552Z,3.13
2023-04-04T07:20:56.215Z,3.35
2023-04-04T07:23:25.559Z,3.56
2023-04-04T07:25:55.536Z,3.87
2023-04-04T07:28:24.350Z,4.06
2023-04-04T07:30:54.361Z,4.29
2023-04-04T07:33:24.763Z,4.56
2023-04-04T07:35:55.210Z,4.93
2023-04-04T07:38:26.058Z,5.17
2023-04-04T07:40:56.364Z,5.24
2023-04-04T07:43:27.210Z,5.27
2023-04-04T07:45:56.877Z,5.26
2023-04-04T07:48:25.841Z,5.14
2023-04-04T07:50:55.025Z,5.03
2023-04-04T07:53:23.952Z,4.91
2023-04-04T07:55:52.864Z,4.75
2023-04-04T07:58:22.754Z,4.53
2023-04-04T08:00:52.219Z,4.34
2023-04-04T08:03:24.580Z,4.14
2023-04-04T08:05:53.315Z,3.94
2023-04-04T08:08:22.976Z,3.83
2023-04-04T08:10:51.829Z,3.80
2023-04-04T08:13:20.610Z,3.77
2023-04-04T08:15:50.076Z,3.71
2023-04-04T08:18:19.319Z,3.66
2023-04-04T08:20:48.292Z,3.54
2023-04-04T08:23:18.007Z,3.45
2023-04-04T08:25:47.091Z,3.38
2023-04-04T08:28:16.950Z,3.34
2023-04-04T08:30:46.529Z,3.33
2023-04-04T08:33:15.153Z,3.35
2023-04-04T08:35:45.210Z,3.36
2023-04-04T08:38:13.939Z,3.38
2023-04-04T08:40:45.831Z,3.40
2023-04-04T08:43:16.290Z,3.45
2023-04-04T08:45:47.299Z,3.48
2023-04-04T08:48:19.216Z,3.51
2023-04-04T08:50:49.816Z,3.51
2023-04-04T08:53:20.172Z,3.51
2023-04-04T08:55:49.836Z,3.54
2023-04-04T08:58:21.678Z,3.59
2023-04-04T09:00:53.998Z,3.65
2023-04-04T09:03:27.868Z,3.71
2023-04-04T09:05:59.422Z,3.74
2023-04-04T09:08:29.471Z,3.77
2023-04-04T09:11:00.382Z,3.79
2023-04-04T09:13:29.214Z,3.85
2023-04-04T09:16:00.954Z,3.94
2023-04-04T09:18:34.911Z,4.02
2023-04-04T09:21:13.548Z,4.08
2023-04-04T09:24:17.263Z,4.17
2023-04-04T09:27:01.580Z,4.28
2023-04-04T09:29:40.177Z,4.37
2023-04-04T09:32:19.457Z,4.42
2023-04-04T09:34:55.394Z,4.50
2023-04-04T09:37:32.988Z,4.58
2023-04-04T09:40:11.960Z,4.60
2023-04-04T09:42:43.977Z,4.60
2023-04-04T09:45:17.128Z,4.58
2023-04-04T09:47:51.599Z,4.56
2023-04-04T09:50:26.429Z,4.53
2023-04-04T09:52:59.933Z,4.56
2023-04-04T09:55:36.930Z,4.59
2023-04-04T09:58:13.741Z,4.66
2023-04-04T10:00:49.106Z,4.78
2023-04-04T10:03:22.925Z,4.91
2023-04-04T10:06:06.963Z,5.01
2023-04-04T10:08:39.720Z,5.11
2023-04-04T10:11:12.882Z,5.14
2023-04-04T10:13:49.286Z,5.19
2023-04-04T10:16:19.320Z,5.22
2023-04-04T10:18:57.819Z,5.19
2023-04-04T10:21:28.346Z,5.24
2023-04-04T10:23:59.529Z,5.25
2023-04-04T10:26:28.468Z,5.31
2023-04-04T10:28:59.062Z,5.38
2023-04-04T10:31:30.640Z,5.40
2023-04-04T10:34:16.488Z,5.40
2023-04-04T10:36:52.579Z,5.39
2023-04-04T10:39:30.124Z,5.46
2023-04-04T10:42:00.169Z,5.52
2023-04-04T10:44:40.176Z,5.52
2023-04-04T10:47:08.809Z,5.47
2023-04-04T10:49:39.340Z,5.45
2023-04-04T10:52:08.787Z,5.48
2023-04-04T10:54:38.568Z,5.50
2023-04-04T10:57:07.819Z,5.50
2023-04-04T10:59:56.596Z,5.51
2023-04-04T11:02:47.259Z,5.53
2023-04-04T11:05:21.885Z,5.57
2023-04-04T11:08:07.667Z,5.65
2023-04-04T11:10:42.155Z,5.72
2023-04-04T11:13:31.081Z,5.81
2023-04-04T11:16:21.975Z,5.90
2023-04-04T11:18:52.426Z,5.97
2023-04-04T11:21:28.822Z,5.94
2023-04-04T11:23:58.697Z,5.86
2023-04-04T11:26:33.537Z,5.79
2023-04-04T11:29:04.439Z,5.73
2023-04-04T11:31:35.495Z,5.70
2023-04-04T11:34:07.595Z,5.66
2023-04-04T11:36:56.554Z,5.68
2023-04-04T11:39:30.688Z,5.77
2023-04-04T11:42:12.409Z,5.84
2023-04-04T11:45:17.296Z,5.92
2023-04-04T11:47:50.567Z,5.97
2023-04-04T11:50:21.531Z,6.05
2023-04-04T11:52:52.224Z,6.21
2023-04-04T11:55:24.201Z,6.43
2023-04-04T11:57:55.958Z,6.73
2023-04-04T12:00:37.825Z,7.09
2023-04-04T12:03:11.467Z,7.57
2023-04-04T12:05:41.960Z,7.97
2023-04-04T12:08:11.980Z,8.35
2023-04-04T12:10:42.150Z,8.52
2023-04-04T12:13:11.088Z,8.57
2023-04-04T12:15:41.659Z,8.44
2023-04-04T12:18:11.875Z,8.21
2023-04-04T12:20:43.007Z,8.03
2023-04-04T12:23:38.252Z,7.91
2023-04-04T12:26:11.440Z,7.79
2023-04-04T12:28:40.669Z,7.73
2023-04-04T12:31:11.087Z,7.66
2023-04-04T12:33:43.488Z,7.48
2023-04-04T12:36:13.351Z,7.25
2023-04-04T12:39:02.120Z,7.19
2023-04-04T12:41:31.183Z,7.13
2023-04-04T12:44:02.857Z,7.17
2023-04-04T12:46:39.442Z,7.25
2023-04-04T12:49:11.583Z,7.22
2023-04-04T12:51:43.674Z,7.48
2023-04-04T12:54:28.509Z,8.28
2023-04-04T12:56:58.540Z,8.72
2023-04-04T12:59:32.296Z,9.17
2023-04-04T13:02:02.617Z,9.41
2023-04-04T13:04:34.892Z,9.57
2023-04-04T13:07:05.654Z,10.13
2023-04-04T13:09:37.118Z,10.89
2023-04-04T13:12:09.205Z,11.29
2023-04-04T13:14:56.998Z,10.88
2023-04-04T13:17:28.205Z,10.33
2023-04-04T13:19:57.030Z,10.57
2023-04-04T13:22:35.366Z,10.95
2023-04-04T13:25:06.905Z,10.59
2023-04-04T13:27:38.344Z,10.53
2023-04-04T13:30:10.002Z,10.83
2023-04-04T13:32:39.877Z,11.19
2023-04-04T13:35:09.611Z,11.32
2023-04-04T13:37:40.569Z,11.33
2023-04-04T13:40:11.395Z,11.47
2023-04-04T13:42:42.589Z,11.67
2023-04-04T13:45:13.868Z,11.59
2023-04-04T13:47:42.785Z,11.15
2023-04-04T13:50:13.877Z,10.88
2023-04-04T13:52:45.673Z,11.00
2023-04-04T13:55:16.261Z,10.87
2023-04-04T13:57:45.103Z,10.80
2023-04-04T14:00:17.816Z,10.86
2023-04-04T14:02:47.534Z,10.71
2023-04-04T14:05:17.751Z,10.49
2023-04-04T14:07:49.444Z,10.15
2023-04-04T14:10:18.378Z,10.20
2023-04-04T14:12:47.189Z,10.23
2023-04-04T14:15:16.237Z,10.30
2023-04-04T14:17:46.664Z,10.27
2023-04-04T14:20:17.071Z,10.21
2023-04-04T14:22:45.991Z,10.19
2023-04-04T14:25:15.134Z,10.04
2023-04-04T14:27:46.472Z,9.90
2023-04-04T14:30:17.034Z,9.78
2023-04-04T14:32:50.532Z,9.56
2023-04-04T14:35:19.841Z,9.17
2023-04-04T14:37:50.547Z,8.75
2023-04-04T14:40:20.894Z,8.39
2023-04-04T14:42:49.909Z,8.04
2023-04-04T14:45:21.034Z,7.69
2023-04-04T14:47:49.770Z,7.53
2023-04-04T14:50:19.314Z,7.46
2023-04-04T14:52:53.079Z,7.60
2023-04-04T14:55:24.556Z,7.79
2023-04-04T15:00:28.922Z,8.21
2023-04-04T15:03:00.163Z,8.38
2023-04-04T15:05:33.281Z,8.55
2023-04-04T15:08:04.697Z,8.75
2023-04-04T15:10:34.824Z,8.89
2023-04-04T15:13:06.246Z,8.92
2023-04-04T15:15:37.007Z,8.90
2023-04-04T15:18:06.718Z,8.94
2023-04-04T15:20:42.081Z,8.92
2023-04-04T15:23:37.707Z,8.62
2023-04-04T15:26:07.923Z,8.19
2023-04-04T15:28:36.862Z,7.81
2023-04-04T15:31:08.249Z,7.45
2023-04-04T15:33:41.798Z,7.44
2023-04-04T15:36:15.818Z,7.38
2023-04-04T15:38:46.429Z,7.28
2023-04-04T15:41:19.032Z,7.30
2023-04-04T15:43:49.719Z,7.28
2023-04-04T15:46:20.768Z,7.23
2023-04-04T15:48:52.774Z,7.14
2023-04-04T15:51:22.072Z,7.02
2023-04-04T15:53:54.096Z,6.92
2023-04-04T15:56:24.965Z,6.79
2023-04-04T15:58:56.297Z,6.72
2023-04-04T16:01:25.886Z,6.67
2023-04-04T16:03:58.100Z,6.57
2023-04-04T16:06:30.528Z,6.43
2023-04-04T16:08:59.382Z,6.32
2023-04-04T16:11:30.814Z,6.26
2023-04-04T16:14:01.510Z,6.22
2023-04-04T16:16:30.454Z,6.15
2023-04-04T16:19:00.032Z,5.99
2023-04-04T16:21:31.734Z,5.77
2023-04-04T16:24:02.659Z,5.58
2023-04-04T16:26:32.658Z,5.36
2023-04-04T16:29:05.407Z,5.16
2023-04-04T16:31:34.842Z,5.03
2023-04-04T16:34:04.345Z,4.92
2023-04-04T16:36:33.946Z,4.86
2023-04-04T16:39:03.684Z,4.75
2023-04-04T16:41:35.726Z,4.68
2023-04-04T16:44:04.681Z,4.51
2023-04-04T16:46:35.311Z,4.36
2023-04-04T16:49:04.665Z,4.29
2023-04-04T16:51:33.840Z,4.14
2023-04-04T16:54:02.685Z,3.97
2023-04-04T16:56:31.934Z,3.78
2023-04-04T16:59:03.952Z,3.64
2023-04-04T17:01:34.976Z,3.47
2023-04-04T17:04:04.330Z,3.33
2023-04-04T17:06:36.673Z,3.14
2023-04-04T17:09:05.338Z,2.98
2023-04-04T17:11:34.378Z,2.81
2023-04-04T17:14:03.258Z,2.65
2023-04-04T17:16:32.889Z,2.51
2023-04-04T17:19:03.887Z,2.39
2023-04-04T17:21:34.486Z,2.26
2023-04-04T17:24:54.534Z,2.14
2023-04-04T17:27:33.255Z,2.02
2023-04-04T17:30:03.363Z,1.90
2023-04-04T17:32:34.460Z,1.77
2023-04-04T17:35:04.329Z,1.69
2023-04-04T17:37:33.804Z,1.61
2023-04-04T17:40:06.282Z,1.55
2023-04-04T17:42:35.605Z,1.55
2023-04-04T17:45:05.596Z,1.44
2023-04-04T17:47:36.937Z,1.27
2023-04-04T17:50:06.856Z,1.09
2023-04-04T17:52:38.104Z,0.94
2023-04-04T17:55:09.777Z,0.80
2023-04-04T17:57:41.370Z,0.69
2023-04-04T18:00:11.442Z,0.59
2023-04-04T18:02:41.824Z,0.47
2023-04-04T18:05:13.616Z,0.36
2023-04-04T18:07:43.606Z,0.25
2023-04-04T18:10:17.100Z,0.15
2023-04-04T18:12:47.077Z,0.07
2023-04-04T18:15:19.173Z,-0.00
2023-04-04T18:17:50.170Z,-0.09
2023-04-04T18:20:28.146Z,-0.16
2023-04-04T18:23:33.080Z,-0.23
2023-04-04T18:26:04.426Z,-0.31
2023-04-04T18:28:34.396Z,-0.39
2023-04-04T18:31:05.803Z,-0.44
2023-04-04T18:33:37.669Z,-0.49
2023-04-04T18:36:10.611Z,-0.55
2023-04-04T18:38:40.913Z,-0.60
2023-04-04T18:41:15.079Z,-0.66
2023-04-04T18:43:46.296Z,-0.70
2023-04-04T18:46:18.689Z,-0.75
2023-04-04T18:48:48.132Z,-0.80
2023-04-04T18:51:23.726Z,-0.83
2023-04-04T18:53:53.542Z,-0.88
2023-04-04T18:56:23.500Z,-0.93
2023-04-04T18:58:55.535Z,-0.98
2023-04-04T19:01:27.505Z,-1.04
2023-04-04T19:04:00.457Z,-1.09
2023-04-04T19:06:33.919Z,-1.14
2023-04-04T19:09:05.469Z,-1.18
2023-04-04T19:11:36.807Z,-1.22
2023-04-04T19:14:09.203Z,-1.27
2023-04-04T19:16:40.989Z,-1.31
2023-04-04T19:19:16.607Z,-1.35
2023-04-04T19:21:48.200Z,-1.39
2023-04-04T19:24:49.732Z,-1.42
2023-04-04T19:27:26.644Z,-1.47
2023-04-04T19:29:59.297Z,-1.51
2023-04-04T19:32:32.164Z,-1.56
2023-04-04T19:35:04.488Z,-1.60
2023-04-04T19:37:35.401Z,-1.66
2023-04-04T19:40:15.269Z,-1.71
2023-04-04T19:42:46.091Z,-1.76
2023-04-04T19:45:15.862Z,-1.79
2023-04-04T19:47:46.597Z,-1.82
2023-04-04T19:50:38.605Z,-1.84
2023-04-04T19:53:09.213Z,-1.87
2023-04-04T19:55:42.485Z,-1.91
2023-04-04T19:58:44.438Z,-1.95
2023-04-04T20:01:28.239Z,-1.99
2023-04-04T20:03:59.441Z,-2.03
2023-04-04T20:06:30.296Z,-2.06
2023-04-04T20:09:02.472Z,-2.10
2023-04-04T20:11:35.125Z,-2.13
2023-04-04T20:14:09.244Z,-2.16
2023-04-04T20:16:38.267Z,-2.20
2023-04-04T20:19:08.656Z,-2.24
2023-04-04T20:21:39.222Z,-2.27
2023-04-04T20:24:34.423Z,-2.32
2023-04-04T20:27:05.168Z,-2.35
2023-04-04T20:29:38.447Z,-2.37
2023-04-04T20:32:09.250Z,-2.39
2023-04-04T20:34:41.865Z,-2.40
2023-04-04T20:37:22.482Z,-2.42
2023-04-04T20:39:54.016Z,-2.42
2023-04-04T20:42:34.245Z,-2.43
2023-04-04T20:45:09.750Z,-2.42
2023-04-04T20:47:43.507Z,-2.40
2023-04-04T20:50:18.787Z,-2.38
2023-04-04T20:52:47.814Z,-2.36
2023-04-04T20:55:18.393Z,-2.33
2023-04-04T20:57:47.886Z,-2.30
2023-04-04T21:00:26.173Z,-2.31
2023-04-04T21:02:56.656Z,-2.29
2023-04-04T21:05:31.933Z,-2.27
2023-04-04T21:08:05.220Z,-2.25
2023-04-04T21:10:40.428Z,-2.25
2023-04-04T21:13:10.733Z,-2.28
2023-04-04T21:15:39.616Z,-2.32
2023-04-04T21:18:09.765Z,-2.35
2023-04-04T21:20:46.134Z,-2.35
2023-04-04T21:23:32.112Z,-2.36
2023-04-04T21:26:04.376Z,-2.38
2023-04-04T21:28:36.217Z,-2.38
2023-04-04T21:31:15.534Z,-2.36
2023-04-04T21:33:46.181Z,-2.32
2023-04-04T21:36:19.445Z,-2.30
2023-04-04T21:38:50.964Z,-2.29
2023-04-04T21:41:40.482Z,-2.30
2023-04-04T21:44:10.285Z,-2.31
2023-04-04T21:46:40.924Z,-2.31
2023-04-04T21:49:12.066Z,-2.30
2023-04-04T21:51:41.734Z,-2.28
2023-04-04T21:54:16.859Z,-2.27
2023-04-04T21:56:46.668Z,-2.27
2023-04-04T21:59:17.946Z,-2.27
2023-04-04T22:01:47.889Z,-2.29
2023-04-04T22:04:16.902Z,-2.32
2023-04-04T22:06:45.760Z,-2.34
2023-04-04T22:09:16.239Z,-2.35
2023-04-04T22:11:46.266Z,-2.38
2023-04-04T22:14:18.193Z,-2.39
2023-04-04T22:16:47.300Z,-2.41
2023-04-04T22:19:27.465Z,-2.42
2023-04-04T22:21:58.970Z,-2.42
2023-04-04T22:24:54.584Z,-2.43
2023-04-04T22:27:25.022Z,-2.44
2023-04-04T22:29:54.779Z,-2.44
2023-04-04T22:32:23.721Z,-2.45
2023-04-04T22:34:53.646Z,-2.44
2023-04-04T22:37:23.956Z,-2.43
2023-04-04T22:39:53.598Z,-2.44
2023-04-04T22:42:24.190Z,-2.44
2023-04-04T22:44:53.920Z,-2.45
2023-04-04T22:47:24.559Z,-2.45
2023-04-04T22:49:56.768Z,-2.45
2023-04-04T22:52:26.860Z,-2.45
2023-04-04T22:54:57.938Z,-2.49
2023-04-04T22:57:27.875Z,-2.54
2023-04-04T22:59:57.053Z,-2.58
2023-04-04T23:02:28.809Z,-2.63
2023-04-04T23:04:59.178Z,-2.70
2023-04-04T23:07:30.252Z,-2.75
2023-04-04T23:09:59.663Z,-2.77
2023-04-04T23:12:29.797Z,-2.79
2023-04-04T23:15:06.276Z,-2.80
2023-04-04T23:17:47.096Z,-2.81
2023-04-04T23:20:22.302Z,-2.83
2023-04-04T23:22:52.777Z,-2.85
2023-04-04T23:25:26.620Z,-2.87
2023-04-04T23:27:58.071Z,-2.93
2023-04-04T23:30:27.763Z,-2.96
2023-04-04T23:32:57.363Z,-3.00
2023-04-04T23:35:28.007Z,-3.04
2023-04-04T23:37:57.560Z,-3.07
2023-04-04T23:40:27.043Z,-3.11
2023-04-04T23:42:56.111Z,-3.13
2023-04-04T23:45:25.029Z,-3.16
2023-04-04T23:47:55.858Z,-3.19
2023-04-04T23:50:26.777Z,-3.22
2023-04-04T23:52:56.733Z,-3.26
2023-04-04T23:55:26.185Z,-3.32
2023-04-04T23:58:01.175Z,-3.38
